首页
METAR-TAF:

METAR-TAF

机场 :

科威特國際機場

科威特, 科威特

纬度: 29-13N, 经度: 047-59E, 海拔: 55米

当前天气观测

该预报发布于48分钟前的23:00 UTC
风速3节,风向南转西南
温度 26°C
湿度 58%
气压 1015 hPa
能见度10公里或以上
少量云层高于4000英尺
多云层高于8000英尺

METAR: OKBK 212300Z 21003KT 9999 FEW040 BKN080 26/17 Q1015 NOSIG

时间: 02:48 (23:48 UTC)

预报

该预报发布于1小时和3分钟前的22:45 UTC
预报有效从22日的 00点(UTC)到 23日的 06点(UTC)
风速12节,风向,有时为22节阵风
能見度: 8000
散云层高于4000英尺
多云层高于8000英尺
短暂存在
从 22日的 00点(UTC)到 22日的 12点(UTC)
能見度: 2500
少量云层高于2500英尺, 积雨云.

TAF: OKBK 212245Z 2200/2306 17012G22KT 8000 SCT040 BKN080 TEMPO 2200/2212 2500 -TSRA/BLDU FEW025CB

超过4000个机场的气象观测和天气预报(METAR&TAF报告)。

可查询的气象台以黄色和红色小点在地图上表示。

将鼠标移到小点上方,可查看气象台名称。

然后点击查看天气观测和预报。

如需切换地图:点击带黑十字的绿色按钮放大地图;点击带横线的绿色按钮缩小地图;或者点击绿色箭头查看邻近地区的地图。


METAR-TAF: